Time;durP1;ratioP1;P1;durP2;ratioP2;P2;SDS_P1;SDS_P2;PMS_P1;PMS_P2;Temp;Humidity;BMP_temperature;BMP_pressure;BME280_temperature;BME280_humidity;BME280_pressure;Samples;Min_cycle;Max_cycle;Signal;HPM_P1;HPM_P2
2022/05/01 00:01:41;;;;;;;33.33;30.03;;;7.90;99.90;;;;;;5033936;28;20428;-62
2022/05/01 00:04:07;;;;;;;34.80;31.10;;;7.90;99.90;;;;;;5034068;28;20440;-62
2022/05/01 00:06:33;;;;;;;35.50;31.00;;;7.90;99.90;;;;;;5028248;28;20187;-58
2022/05/01 00:09:00;;;;;;;34.13;30.50;;;7.80;99.90;;;;;;5023649;28;20445;-62
2022/05/01 00:11:26;;;;;;;33.80;30.27;;;7.80;99.90;;;;;;5027743;28;20183;-59
2022/05/01 00:13:51;;;;;;;33.13;29.73;;;7.80;99.90;;;;;;5026780;28;20493;-61
2022/05/01 00:16:17;;;;;;;34.23;30.83;;;7.70;99.90;;;;;;5027491;28;20444;-62
2022/05/01 00:18:42;;;;;;;35.03;31.23;;;7.70;99.90;;;;;;5026902;28;20186;-61
2022/05/01 00:21:08;;;;;;;33.93;30.27;;;7.60;99.90;;;;;;5027332;28;20227;-62
2022/05/01 00:23:34;;;;;;;33.57;30.07;;;7.60;99.90;;;;;;5028743;28;20206;-63
2022/05/01 00:26:02;;;;;;;33.27;29.67;;;7.60;99.90;;;;;;5028560;28;20417;-62
2022/05/01 00:28:29;;;;;;;32.80;29.37;;;7.50;99.90;;;;;;5026208;28;20199;-62
2022/05/01 00:30:56;;;;;;;35.13;31.40;;;7.50;99.90;;;;;;5028335;28;20425;-62
2022/05/01 00:38:50;;;;;;;34.53;31.00;;;7.30;99.90;;;;;;5020740;28;20851;-63
2022/05/01 00:41:16;;;;;;;32.63;29.30;;;7.30;99.90;;;;;;5031642;28;20421;-62
2022/05/01 00:44:03;;;;;;;31.33;28.13;;;7.20;99.90;;;;;;5029044;28;20187;-62
2022/05/01 00:46:39;;;;;;;30.87;27.47;;;7.20;99.90;;;;;;5029331;28;20509;-62
2022/05/01 00:49:08;;;;;;;29.63;26.50;;;7.10;99.90;;;;;;5025462;28;20524;-61
2022/05/01 00:51:38;;;;;;;30.87;27.57;;;7.10;99.90;;;;;;5030501;28;20513;-63
2022/05/01 00:54:07;;;;;;;29.90;26.80;;;7.10;99.90;;;;;;5030760;28;20473;-61
2022/05/01 00:56:35;;;;;;;32.27;28.30;;;7.10;99.90;;;;;;5028711;28;20421;-61
2022/05/01 00:59:01;;;;;;;31.95;28.65;;;7.10;99.90;;;;;;5026549;28;20461;-61
2022/05/01 01:01:27;;;;;;;32.57;29.10;;;7.00;99.90;;;;;;5031766;28;20222;-62
2022/05/01 01:03:54;;;;;;;32.77;29.03;;;7.00;99.90;;;;;;5032434;28;20191;-62
2022/05/01 01:06:20;;;;;;;32.57;29.17;;;7.00;99.90;;;;;;5029359;28;20449;-62
2022/05/01 01:08:46;;;;;;;32.10;28.60;;;6.90;99.90;;;;;;5031423;28;20797;-62
2022/05/01 01:11:12;;;;;;;34.43;29.23;;;6.90;99.90;;;;;;5026391;28;20446;-62
2022/05/01 01:13:37;;;;;;;33.30;29.70;;;6.80;99.90;;;;;;5032802;28;20461;-62
2022/05/01 01:16:09;;;;;;;31.87;27.90;;;6.80;99.90;;;;;;5032208;28;20193;-62
2022/05/01 01:18:34;;;;;;;33.30;29.80;;;6.80;99.90;;;;;;5028135;28;20676;-62
2022/05/01 01:21:00;;;;;;;31.67;27.83;;;6.80;99.90;;;;;;5032969;28;20430;-61
2022/05/01 01:23:26;;;;;;;31.83;28.57;;;6.70;99.90;;;;;;5032128;28;20487;-55
2022/05/01 01:25:52;;;;;;;32.20;28.88;;;6.70;99.90;;;;;;5030833;28;20191;-61
2022/05/01 01:28:18;;;;;;;33.03;29.53;;;6.70;99.90;;;;;;5031195;28;20594;-63
2022/05/01 01:33:29;;;;;;;32.55;28.88;;;6.60;99.90;;;;;;5031990;28;20700;-62
2022/05/01 01:35:58;;;;;;;31.45;28.23;;;6.50;99.90;;;;;;5028189;28;20187;-61
2022/05/01 01:38:24;;;;;;;32.40;28.42;;;6.50;99.90;;;;;;5032946;28;20289;-62
2022/05/01 01:40:52;;;;;;;32.97;29.57;;;6.50;99.90;;;;;;5031704;28;20266;-58
2022/05/01 01:43:23;;;;;;;34.33;29.02;;;6.50;99.90;;;;;;5031697;28;20539;-61
2022/05/01 01:45:49;;;;;;;32.70;29.20;;;6.40;99.90;;;;;;5028788;28;20175;-62
2022/05/01 01:48:22;;;;;;;34.20;30.53;;;6.40;99.90;;;;;;5029905;28;20193;-62
2022/05/01 01:50:59;;;;;;;39.83;31.75;;;6.40;99.90;;;;;;5030542;28;20189;-61
2022/05/01 01:53:27;;;;;;;32.13;28.70;;;6.40;99.90;;;;;;5025281;28;20233;-62
2022/05/01 01:55:53;;;;;;;33.25;29.75;;;6.30;99.90;;;;;;5031971;28;20242;-62
2022/05/01 01:58:19;;;;;;;32.17;28.73;;;6.30;99.90;;;;;;5029982;28;20536;-63
2022/05/01 02:00:45;;;;;;;33.00;29.37;;;6.30;99.90;;;;;;5026733;28;20175;-62
2022/05/01 02:03:10;;;;;;;33.60;28.70;;;6.30;99.90;;;;;;5030750;28;20515;-62
2022/05/01 02:05:36;;;;;;;31.53;27.83;;;6.20;99.90;;;;;;5029822;28;20428;-62
2022/05/01 02:08:02;;;;;;;35.80;29.20;;;6.20;99.90;;;;;;5013220;28;20718;-62
2022/05/01 02:10:28;;;;;;;32.22;28.80;;;6.10;99.90;;;;;;5029675;28;20672;-62
2022/05/01 02:12:54;;;;;;;36.97;29.40;;;6.20;99.90;;;;;;5025882;28;20202;-61
2022/05/01 02:15:20;;;;;;;33.73;28.70;;;6.10;99.90;;;;;;5030386;28;20187;-62
2022/05/01 02:17:46;;;;;;;32.60;29.05;;;6.10;99.90;;;;;;5028175;28;20658;-58
2022/05/01 02:20:11;;;;;;;32.63;28.90;;;6.00;99.90;;;;;;5027360;28;20217;-62
2022/05/01 02:22:41;;;;;;;32.00;28.30;;;5.90;99.90;;;;;;5029472;28;20469;-61
2022/05/01 02:25:10;;;;;;;33.00;27.80;;;5.90;99.90;;;;;;5030395;28;20178;-62
2022/05/01 02:27:37;;;;;;;29.50;26.33;;;5.90;99.90;;;;;;5028369;28;20183;-62
2022/05/01 02:30:04;;;;;;;30.35;27.05;;;5.90;99.90;;;;;;5026681;28;20179;-62
2022/05/01 02:32:30;;;;;;;31.90;26.80;;;5.90;99.90;;;;;;5028933;28;20203;-62
2022/05/01 02:34:55;;;;;;;29.73;26.47;;;5.80;99.90;;;;;;5029471;28;20198;-62
2022/05/01 02:37:21;;;;;;;29.97;26.80;;;5.90;99.90;;;;;;5028255;28;20229;-63
2022/05/01 02:39:46;;;;;;;33.83;27.40;;;5.90;99.90;;;;;;5028333;28;20210;-60
2022/05/01 02:42:13;;;;;;;33.90;29.80;;;5.90;99.90;;;;;;5027972;28;20198;-61
2022/05/01 02:44:38;;;;;;;32.55;29.00;;;5.80;99.90;;;;;;5030123;28;20160;-58
2022/05/01 02:47:05;;;;;;;33.27;29.67;;;5.80;99.90;;;;;;5039899;28;20744;-61
2022/05/01 02:49:30;;;;;;;34.10;28.80;;;5.80;99.90;;;;;;5028977;28;20191;-60
2022/05/01 02:51:56;;;;;;;32.33;28.77;;;5.80;99.90;;;;;;5024380;28;20561;-61
2022/05/01 02:54:22;;;;;;;31.00;27.80;;;5.80;99.90;;;;;;5028332;28;20272;-62
2022/05/01 02:56:49;;;;;;;31.60;26.67;;;5.80;99.90;;;;;;5027949;28;20179;-61
2022/05/01 02:59:18;;;;;;;32.05;27.67;;;5.80;99.90;;;;;;5028639;28;20250;-60
2022/05/01 03:01:44;;;;;;;30.55;27.25;;;5.80;99.90;;;;;;5028409;28;20693;-61
2022/05/01 03:04:10;;;;;;;27.75;24.70;;;5.70;99.90;;;;;;5029642;28;20206;-61
2022/05/01 03:06:36;;;;;;;28.87;25.53;;;5.70;99.90;;;;;;5027051;28;20213;-61
2022/05/01 03:09:03;;;;;;;31.65;26.58;;;5.70;99.90;;;;;;5027260;28;20499;-62
2022/05/01 03:11:28;;;;;;;31.38;26.48;;;5.70;99.90;;;;;;5041978;28;20253;-61
2022/05/01 03:13:54;;;;;;;31.20;25.87;;;5.60;99.90;;;;;;5027807;28;20215;-61
2022/05/01 03:16:20;;;;;;;30.20;27.00;;;5.60;99.90;;;;;;5021580;28;20172;-61
2022/05/01 03:24:15;;;;;;;29.40;26.20;;;5.50;99.90;;;;;;5028834;28;20249;-61
2022/05/01 03:26:42;;;;;;;28.73;25.83;;;5.50;99.90;;;;;;5027984;28;20202;-61
2022/05/01 03:29:08;;;;;;;29.35;26.20;;;5.40;99.90;;;;;;5026981;28;20675;-61
2022/05/01 03:31:35;;;;;;;37.93;28.67;;;5.40;99.90;;;;;;5027369;28;20210;-61
2022/05/01 03:34:03;;;;;;;30.20;26.98;;;5.30;99.90;;;;;;5027838;28;20492;-62
2022/05/01 03:36:28;;;;;;;35.60;27.52;;;5.30;99.90;;;;;;5028113;28;20613;-57
2022/05/01 03:38:54;;;;;;;31.33;27.80;;;5.30;99.90;;;;;;5025806;28;20207;-62
2022/05/01 03:41:19;;;;;;;30.50;26.80;;;5.30;99.90;;;;;;5028105;28;20540;-60
2022/05/01 03:43:45;;;;;;;30.13;26.23;;;5.30;99.90;;;;;;5026491;28;20210;-62
2022/05/01 03:46:11;;;;;;;32.33;26.17;;;5.30;99.90;;;;;;5026012;28;20783;-60
2022/05/01 03:48:37;;;;;;;30.90;27.55;;;5.20;99.90;;;;;;5028025;28;20198;-62
2022/05/01 03:51:03;;;;;;;30.50;27.30;;;5.20;99.90;;;;;;5028226;28;20194;-62
2022/05/01 03:53:31;;;;;;;31.30;27.97;;;5.20;99.90;;;;;;5027773;28;20244;-62
2022/05/01 03:55:57;;;;;;;31.17;27.83;;;5.20;99.90;;;;;;5024818;28;20233;-53
2022/05/01 03:58:23;;;;;;;32.47;29.02;;;5.30;99.90;;;;;;5009462;28;20160;-62
2022/05/01 04:00:48;;;;;;;35.27;29.90;;;5.30;99.90;;;;;;5012795;28;20185;-61
2022/05/01 04:03:15;;;;;;;32.13;28.70;;;5.30;99.90;;;;;;5028939;28;20254;-62
2022/05/01 04:05:41;;;;;;;33.80;30.20;;;5.20;99.90;;;;;;5024927;28;20215;-61
2022/05/01 04:08:10;;;;;;;34.07;29.27;;;5.20;99.90;;;;;;5027227;28;20265;-63
2022/05/01 04:10:41;;;;;;;32.10;28.60;;;5.20;99.90;;;;;;5030807;28;20532;-61
2022/05/01 04:13:08;;;;;;;33.78;30.02;;;5.20;99.90;;;;;;5031472;28;20634;-60
2022/05/01 04:15:36;;;;;;;37.95;31.60;;;5.20;99.90;;;;;;5032286;28;20191;-61
2022/05/01 04:18:02;;;;;;;37.58;31.67;;;5.30;99.90;;;;;;5029963;28;20183;-61
2022/05/01 04:20:28;;;;;;;34.88;31.17;;;5.30;99.90;;;;;;5031374;28;20227;-61
2022/05/01 04:22:54;;;;;;;34.67;31.10;;;5.30;99.90;;;;;;5030581;28;20191;-61
2022/05/01 04:25:22;;;;;;;35.90;31.93;;;5.30;99.90;;;;;;5032158;28;20195;-62
2022/05/01 04:27:52;;;;;;;38.30;32.95;;;5.20;99.90;;;;;;5030560;28;20444;-62
2022/05/01 04:30:19;;;;;;;39.00;31.90;;;5.20;99.90;;;;;;5023126;28;20317;-58
2022/05/01 04:32:57;;;;;;;37.75;32.22;;;5.20;99.90;;;;;;5024837;28;20669;-61
2022/05/01 04:35:40;;;;;;;34.85;30.45;;;5.30;99.90;;;;;;5032494;28;20205;-61
2022/05/01 04:38:08;;;;;;;37.58;32.63;;;5.30;99.90;;;;;;5026254;28;20191;-60
2022/05/01 04:40:54;;;;;;;38.20;31.38;;;5.30;99.90;;;;;;5031703;28;20653;-60
2022/05/01 04:43:25;;;;;;;34.10;29.58;;;5.40;99.90;;;;;;5029706;28;20190;-62
2022/05/01 04:45:52;;;;;;;34.53;29.27;;;5.40;99.90;;;;;;5029535;28;20214;-62
2022/05/01 04:48:19;;;;;;;34.10;30.30;;;5.40;99.90;;;;;;5027781;28;20218;-62
2022/05/01 04:50:46;;;;;;;37.70;30.65;;;5.50;99.90;;;;;;5026827;28;20615;-62
2022/05/01 04:53:13;;;;;;;36.63;30.17;;;5.50;99.90;;;;;;5030858;28;20219;-62
2022/05/01 04:55:40;;;;;;;33.33;29.00;;;5.50;99.90;;;;;;5028835;28;20221;-62
2022/05/01 04:58:06;;;;;;;32.35;28.83;;;5.50;99.90;;;;;;5030696;28;20941;-56
2022/05/01 05:00:33;;;;;;;26.27;23.58;;;5.60;99.90;;;;;;5025911;28;20183;-63
2022/05/01 05:02:59;;;;;;;26.50;23.80;;;5.60;99.90;;;;;;5030281;28;20217;-62
2022/05/01 05:05:27;;;;;;;28.90;25.80;;;5.70;99.90;;;;;;5028445;28;20597;-62
2022/05/01 05:07:52;;;;;;;29.00;25.90;;;5.70;99.90;;;;;;5029516;28;20945;-49
2022/05/01 05:10:18;;;;;;;31.33;27.00;;;5.70;99.90;;;;;;5028143;28;20290;-53
2022/05/01 05:12:47;;;;;;;28.87;24.23;;;5.70;99.90;;;;;;5030226;28;20257;-54
2022/05/01 05:15:15;;;;;;;29.70;26.60;;;5.80;99.90;;;;;;5029035;28;20558;-54
2022/05/01 05:17:42;;;;;;;30.08;27.00;;;5.80;99.90;;;;;;5029386;28;20645;-53
2022/05/01 05:20:11;;;;;;;24.55;21.60;;;5.90;99.90;;;;;;5026468;28;20188;-52
2022/05/01 05:22:36;;;;;;;22.55;20.15;;;5.90;99.90;;;;;;5027988;28;20985;-52
2022/05/01 05:25:03;;;;;;;28.93;25.77;;;6.00;99.90;;;;;;5029005;28;20225;-50
2022/05/01 05:27:29;;;;;;;25.77;21.23;;;6.10;99.90;;;;;;5027959;28;20213;-53
2022/05/01 05:29:56;;;;;;;26.37;23.47;;;6.10;99.90;;;;;;5028985;28;20202;-50
2022/05/01 05:32:23;;;;;;;27.83;24.30;;;6.20;99.90;;;;;;5029029;28;20248;-53
2022/05/01 05:34:49;;;;;;;30.65;26.80;;;6.30;99.90;;;;;;5028647;28;20202;-53
2022/05/01 05:37:15;;;;;;;28.60;25.07;;;6.40;99.90;;;;;;5029129;28;20190;-50
2022/05/01 05:39:41;;;;;;;25.80;23.15;;;6.50;99.90;;;;;;5027559;28;20521;-52
2022/05/01 05:42:07;;;;;;;24.60;22.00;;;6.50;99.90;;;;;;5027037;28;20278;-53
2022/05/01 05:44:32;;;;;;;33.47;29.53;;;6.50;99.90;;;;;;5029091;28;20621;-51
2022/05/01 05:46:58;;;;;;;24.17;21.60;;;6.60;99.90;;;;;;5025201;28;20183;-49
2022/05/01 05:49:23;;;;;;;23.50;20.13;;;6.60;99.90;;;;;;5028835;28;20206;-54
2022/05/01 05:51:49;;;;;;;24.97;21.07;;;6.70;99.90;;;;;;5026991;28;20237;-52
2022/05/01 05:54:15;;;;;;;25.63;22.37;;;6.70;99.90;;;;;;5025299;28;20705;-51
2022/05/01 05:56:40;;;;;;;25.33;21.50;;;6.80;99.90;;;;;;5027604;28;20633;-52
2022/05/01 05:59:06;;;;;;;24.13;21.13;;;6.90;99.90;;;;;;5026435;28;20634;-51
2022/05/01 06:01:31;;;;;;;22.93;20.53;;;7.10;99.90;;;;;;5027749;28;20340;-52
2022/05/01 06:03:57;;;;;;;23.87;21.40;;;7.10;99.90;;;;;;5027785;28;20540;-50
2022/05/01 06:06:23;;;;;;;27.00;22.53;;;7.30;99.90;;;;;;5029247;28;20680;-55
2022/05/01 06:08:48;;;;;;;26.50;23.10;;;7.50;99.90;;;;;;5016010;28;20198;-51
2022/05/01 06:11:14;;;;;;;25.50;22.87;;;7.60;99.90;;;;;;5027868;28;20199;-53
2022/05/01 06:13:39;;;;;;;26.00;22.37;;;7.80;99.90;;;;;;5024927;28;20208;-50
2022/05/01 06:16:05;;;;;;;25.70;23.00;;;7.80;99.90;;;;;;5033378;28;20579;-48
2022/05/01 06:18:31;;;;;;;26.00;23.30;;;7.90;99.90;;;;;;5025073;28;20748;-49
2022/05/01 06:20:59;;;;;;;27.60;24.70;;;8.10;99.90;;;;;;5026230;28;21147;-55
2022/05/01 06:23:25;;;;;;;28.33;25.33;;;8.30;99.90;;;;;;5025305;28;20233;-50
2022/05/01 06:25:51;;;;;;;31.00;27.67;;;8.30;99.90;;;;;;5027029;28;20496;-49
2022/05/01 06:28:17;;;;;;;28.97;25.90;;;8.40;99.90;;;;;;5026321;28;20431;-53
2022/05/01 06:30:45;;;;;;;31.20;28.10;;;8.40;99.90;;;;;;5022973;28;20269;-54
2022/05/01 06:33:14;;;;;;;30.93;27.73;;;8.60;99.90;;;;;;5029190;28;21095;-49
2022/05/01 06:35:40;;;;;;;29.60;26.50;;;8.70;99.90;;;;;;5024842;28;20441;-52
2022/05/01 06:38:10;;;;;;;29.93;27.00;;;8.90;99.90;;;;;;5027796;28;20429;-47
2022/05/01 06:40:39;;;;;;;33.23;29.47;;;9.00;99.90;;;;;;5026434;28;20442;-51
2022/05/01 06:43:07;;;;;;;31.87;28.57;;;9.10;99.90;;;;;;5018645;28;20850;-49
2022/05/01 06:45:33;;;;;;;31.33;28.20;;;9.30;99.90;;;;;;5025105;28;20449;-49
2022/05/01 06:47:58;;;;;;;33.73;30.23;;;9.50;99.90;;;;;;5027779;28;20465;-51
2022/05/01 06:50:24;;;;;;;34.20;29.33;;;9.60;99.90;;;;;;5023251;28;20470;-51
2022/05/01 06:52:49;;;;;;;32.97;29.20;;;9.70;99.90;;;;;;5028233;28;20203;-49
2022/05/01 06:55:18;;;;;;;34.60;29.97;;;9.80;99.90;;;;;;5040886;28;20288;-49
2022/05/01 06:57:43;;;;;;;35.20;31.40;;;10.00;99.90;;;;;;5026757;28;20183;-48
2022/05/01 07:00:11;;;;;;;36.80;32.80;;;10.10;99.90;;;;;;5023005;28;20962;-53
2022/05/01 07:02:43;;;;;;;39.60;35.40;;;10.30;99.90;;;;;;5025772;28;20590;-52
2022/05/01 07:05:08;;;;;;;36.80;33.00;;;10.50;99.90;;;;;;5024203;28;20433;-50
2022/05/01 07:07:34;;;;;;;39.57;35.13;;;10.60;99.90;;;;;;5026952;28;20437;-49
2022/05/01 07:09:59;;;;;;;36.43;32.73;;;10.70;99.90;;;;;;5026020;28;20232;-51
2022/05/01 07:12:25;;;;;;;36.97;33.17;;;10.80;99.90;;;;;;5028386;28;20210;-54
2022/05/01 07:14:50;;;;;;;37.17;33.37;;;10.90;99.90;;;;;;5025533;28;20245;-52
2022/05/01 07:17:16;;;;;;;38.03;33.93;;;11.10;99.90;;;;;;5026694;28;20496;-54
2022/05/01 07:19:41;;;;;;;37.17;33.27;;;11.30;99.90;;;;;;5022135;28;20191;-53
2022/05/01 07:22:07;;;;;;;38.43;34.47;;;11.40;99.90;;;;;;5015975;28;20182;-52
2022/05/01 07:24:33;;;;;;;38.57;34.67;;;11.60;99.90;;;;;;5027604;28;20248;-51
2022/05/01 07:26:58;;;;;;;36.53;32.60;;;11.70;99.90;;;;;;5026102;28;20662;-50
2022/05/01 07:29:24;;;;;;;36.93;33.10;;;11.90;99.90;;;;;;5027323;28;20198;-54
2022/05/01 07:31:50;;;;;;;37.63;33.63;;;12.00;99.90;;;;;;5028982;28;20210;-52
2022/05/01 07:34:15;;;;;;;37.93;33.97;;;12.10;99.90;;;;;;5028336;28;20876;-51
2022/05/01 07:36:41;;;;;;;37.00;33.20;;;12.30;99.90;;;;;;5026962;28;20183;-50
2022/05/01 07:39:06;;;;;;;35.33;31.70;;;12.30;99.90;;;;;;5015809;28;20183;-55
2022/05/01 07:41:33;;;;;;;35.43;31.90;;;12.40;99.90;;;;;;5010207;28;20211;-53
2022/05/01 07:43:59;;;;;;;33.60;30.50;;;12.60;99.90;;;;;;5026376;28;20210;-50
2022/05/01 07:46:25;;;;;;;34.77;31.30;;;12.70;99.90;;;;;;5027390;28;20500;-54
2022/05/01 07:48:50;;;;;;;34.83;31.30;;;12.80;99.90;;;;;;5032356;28;20618;-54
2022/05/01 07:51:16;;;;;;;36.07;32.23;;;13.00;99.90;;;;;;5027876;28;20190;-50
2022/05/01 07:53:43;;;;;;;35.50;32.20;;;13.10;99.90;;;;;;5032044;28;20234;-51
2022/05/01 07:56:08;;;;;;;36.93;33.13;;;13.30;99.90;;;;;;5030557;28;20429;-55
2022/05/01 07:58:34;;;;;;;37.43;33.93;;;13.50;99.90;;;;;;5031351;28;20503;-51
2022/05/01 08:01:01;;;;;;;34.60;31.07;;;13.50;99.90;;;;;;5030403;28;20189;-52
2022/05/01 08:06:12;;;;;;;34.70;31.37;;;13.90;99.90;;;;;;5032399;28;20425;-51
2022/05/01 08:08:39;;;;;;;51.00;31.17;;;14.00;99.90;;;;;;5031110;28;20409;-51
2022/05/01 08:11:05;;;;;;;33.60;30.30;;;14.10;99.90;;;;;;5029537;28;20447;-55
2022/05/01 08:13:31;;;;;;;34.33;30.90;;;14.20;99.60;;;;;;5031712;28;20461;-50
2022/05/01 08:15:56;;;;;;;32.30;29.10;;;14.40;98.50;;;;;;5030891;28;20487;-53
2022/05/01 08:21:09;;;;;;;32.83;29.73;;;14.70;96.10;;;;;;5024901;28;20190;-52
2022/05/01 08:23:36;;;;;;;32.07;28.97;;;14.90;95.70;;;;;;5023233;28;21016;-50
2022/05/01 08:26:06;;;;;;;32.27;28.97;;;15.10;95.20;;;;;;5022620;28;20559;-55
2022/05/01 08:28:36;;;;;;;31.20;28.20;;;15.30;93.00;;;;;;5022077;28;20501;-55
2022/05/01 08:31:03;;;;;;;33.07;29.97;;;15.50;92.40;;;;;;5030012;28;20474;-55
2022/05/01 08:33:28;;;;;;;31.67;28.77;;;15.70;91.90;;;;;;5031334;28;20617;-52
2022/05/01 08:35:54;;;;;;;31.53;28.53;;;15.80;91.50;;;;;;5030169;28;20621;-55
2022/05/01 08:38:20;;;;;;;31.37;28.37;;;15.90;91.50;;;;;;5030922;28;20609;-51
2022/05/01 08:40:48;;;;;;;30.90;27.80;;;16.20;91.20;;;;;;5030862;28;20946;-50
2022/05/01 08:43:15;;;;;;;28.83;26.20;;;16.30;90.70;;;;;;5031496;28;21287;-50
2022/05/01 08:45:52;;;;;;;27.60;24.90;;;16.60;86.30;;;;;;5030958;28;20441;-54
2022/05/01 08:48:29;;;;;;;27.17;24.60;;;16.90;84.30;;;;;;5031190;28;20419;-53
2022/05/01 08:50:55;;;;;;;27.53;25.03;;;17.20;81.10;;;;;;5029177;28;20447;-54
2022/05/01 08:53:22;;;;;;;27.13;24.23;;;17.60;73.90;;;;;;5036978;28;20522;-54
2022/05/01 08:55:48;;;;;;;24.37;22.17;;;17.90;70.70;;;;;;5030633;28;20495;-53
2022/05/01 08:58:14;;;;;;;25.83;23.60;;;18.40;68.00;;;;;;5031315;28;20434;-54
2022/05/01 09:00:41;;;;;;;24.93;22.70;;;18.70;64.70;;;;;;5029737;28;20528;-54
2022/05/01 09:03:07;;;;;;;24.20;21.90;;;19.00;65.50;;;;;;5030299;28;20467;-54
2022/05/01 09:05:32;;;;;;;24.90;22.70;;;19.60;63.20;;;;;;5029621;28;21216;-54
2022/05/01 09:07:58;;;;;;;22.27;20.37;;;19.90;58.50;;;;;;5028789;28;20202;-52
2022/05/01 09:10:28;;;;;;;24.70;22.30;;;20.60;55.30;;;;;;5029580;28;20184;-51
2022/05/01 09:12:54;;;;;;;24.23;22.00;;;20.90;50.20;;;;;;5025730;28;20215;-52
2022/05/01 09:15:36;;;;;;;23.80;21.60;;;21.50;48.30;;;;;;5015248;28;20441;-55
2022/05/01 09:18:04;;;;;;;23.53;21.53;;;21.70;47.40;;;;;;5023147;28;20186;-56
2022/05/01 09:20:30;;;;;;;23.73;21.60;;;22.30;48.20;;;;;;5027318;28;20495;-54
2022/05/01 09:22:57;;;;;;;24.00;22.00;;;23.10;46.70;;;;;;5029235;28;20437;-58
2022/05/01 09:25:24;;;;;;;25.10;23.00;;;24.00;42.80;;;;;;5025661;28;20493;-55
2022/05/01 09:27:56;;;;;;;23.07;21.07;;;24.50;39.40;;;;;;5027250;28;20446;-58
2022/05/01 09:30:31;;;;;;;23.67;21.67;;;24.90;36.80;;;;;;5021981;28;20442;-58
2022/05/01 09:32:57;;;;;;;23.03;21.23;;;25.30;36.20;;;;;;5026587;28;20488;-57
2022/05/01 09:35:22;;;;;;;23.00;20.90;;;25.80;33.40;;;;;;5028384;28;20546;-57
2022/05/01 09:37:48;;;;;;;22.40;20.40;;;25.90;33.20;;;;;;5019006;28;20442;-56
2022/05/01 09:40:30;;;;;;;23.17;21.00;;;26.00;35.00;;;;;;5028136;28;20189;-59
2022/05/01 09:42:55;;;;;;;21.70;19.77;;;25.80;34.60;;;;;;5027265;28;20181;-56
2022/05/01 09:45:31;;;;;;;21.60;19.80;;;26.10;36.20;;;;;;5027751;28;20433;-55
2022/05/01 09:47:56;;;;;;;21.70;20.00;;;26.60;34.80;;;;;;5028503;28;20190;-56
2022/05/01 09:50:40;;;;;;;17.50;16.20;;;27.00;31.90;;;;;;5025973;28;20756;-56
2022/05/01 09:53:06;;;;;;;18.17;16.67;;;27.20;30.00;;;;;;5040729;28;20206;-54
2022/05/01 09:55:32;;;;;;;20.47;18.67;;;27.20;29.60;;;;;;5050397;28;20828;-56
2022/05/01 09:58:13;;;;;;;20.00;18.40;;;27.10;30.70;;;;;;5027485;28;20572;-54
2022/05/01 10:00:44;;;;;;;19.80;18.30;;;27.50;27.20;;;;;;5027570;28;22239;-58
2022/05/01 10:03:29;;;;;;;18.80;17.40;;;28.20;26.70;;;;;;5021481;28;20437;-56
2022/05/01 10:05:57;;;;;;;20.20;18.63;;;28.20;28.90;;;;;;5026151;28;20516;-56
2022/05/01 10:08:23;;;;;;;20.67;18.97;;;28.20;28.50;;;;;;5029148;28;20415;-56
2022/05/01 10:10:53;;;;;;;18.87;17.33;;;28.70;28.50;;;;;;5037945;28;21032;-57
2022/05/01 10:13:19;;;;;;;17.63;16.37;;;28.80;27.70;;;;;;5029079;28;20931;-55
2022/05/01 10:15:46;;;;;;;19.53;18.03;;;28.60;28.90;;;;;;5026267;28;20440;-55
2022/05/01 10:18:13;;;;;;;17.10;15.70;;;28.80;27.20;;;;;;5028450;28;20178;-55
2022/05/01 10:20:41;;;;;;;17.53;16.20;;;29.30;25.40;;;;;;5026758;28;20478;-56
2022/05/01 10:23:07;;;;;;;19.67;18.27;;;29.60;25.90;;;;;;5027850;28;20955;-55
2022/05/01 10:25:37;;;;;;;19.20;17.73;;;30.00;24.10;;;;;;5028840;28;20429;-54
2022/05/01 10:28:29;;;;;;;19.80;18.37;;;30.10;25.10;;;;;;5024085;28;20442;-54
2022/05/01 10:34:16;;;;;;;18.47;17.07;;;30.30;23.90;;;;;;5024410;28;20507;-52
2022/05/01 10:37:00;;;;;;;18.70;17.10;;;30.60;21.80;;;;;;5025373;28;21155;-54
2022/05/01 10:39:34;;;;;;;17.37;16.10;;;31.00;21.50;;;;;;5026599;28;20436;-53
2022/05/01 10:42:00;;;;;;;16.80;15.60;;;30.80;22.20;;;;;;5024992;28;20517;-55
2022/05/01 10:44:26;;;;;;;15.83;14.33;;;30.30;23.00;;;;;;5024542;28;20448;-54
2022/05/01 10:46:53;;;;;;;15.47;14.43;;;30.50;21.70;;;;;;5028879;28;20532;-55
2022/05/01 10:49:34;;;;;;;15.10;14.10;;;30.30;21.60;;;;;;5026627;28;20465;-56
2022/05/01 10:52:20;;;;;;;15.90;14.70;;;29.60;23.60;;;;;;5026230;28;20441;-56
2022/05/01 10:54:49;;;;;;;14.00;13.00;;;30.20;22.20;;;;;;5027104;28;20481;-55
2022/05/01 10:57:16;;;;;;;14.07;13.17;;;30.50;22.50;;;;;;5023866;28;20438;-55
2022/05/01 10:59:46;;;;;;;16.43;15.10;;;31.10;20.60;;;;;;5026892;28;20519;-54
2022/05/01 11:02:30;;;;;;;15.97;14.57;;;31.00;20.90;;;;;;5022973;28;20508;-51
2022/05/01 11:04:57;;;;;;;15.20;13.80;;;31.10;20.10;;;;;;5026495;28;20520;-55
2022/05/01 11:07:25;;;;;;;14.27;13.27;;;31.30;21.40;;;;;;5028282;28;20418;-55
2022/05/01 11:09:51;;;;;;;14.40;13.40;;;31.70;19.90;;;;;;5026355;28;20970;-54
2022/05/01 11:12:26;;;;;;;14.10;13.10;;;31.90;18.90;;;;;;5024183;28;20516;-56
2022/05/01 11:14:55;;;;;;;11.80;10.90;;;31.60;17.80;;;;;;5027421;28;20242;-56
2022/05/01 11:17:36;;;;;;;11.80;11.00;;;31.80;17.90;;;;;;5027262;28;20430;-52
2022/05/01 11:20:10;;;;;;;11.90;11.07;;;32.00;17.10;;;;;;5023739;28;21249;-54
2022/05/01 11:22:36;;;;;;;12.03;11.20;;;31.30;17.10;;;;;;5023273;28;20468;-55
2022/05/01 11:25:03;;;;;;;10.40;9.70;;;31.30;17.20;;;;;;5029171;28;20426;-55
2022/05/01 11:27:53;;;;;;;10.90;10.20;;;31.30;18.10;;;;;;5027096;28;20437;-54
2022/05/01 11:30:28;;;;;;;11.63;10.60;;;32.00;15.80;;;;;;5028902;28;21344;-55
2022/05/01 11:33:11;;;;;;;11.97;11.10;;;30.70;16.90;;;;;;5026700;28;20460;-56
2022/05/01 11:36:04;;;;;;;10.07;9.40;;;29.60;17.50;;;;;;5027764;28;20466;-52
2022/05/01 11:38:38;;;;;;;12.30;11.40;;;29.30;18.00;;;;;;5027216;28;20491;-54
2022/05/01 11:41:06;;;;;;;9.97;9.37;;;29.80;18.20;;;;;;5026936;28;20532;-55
2022/05/01 11:43:34;;;;;;;10.90;9.80;;;30.70;17.50;;;;;;5026238;28;20446;-56
2022/05/01 11:46:03;;;;;;;10.63;9.90;;;31.10;17.70;;;;;;5026845;28;20441;-53
2022/05/01 11:48:29;;;;;;;11.23;10.33;;;32.00;15.70;;;;;;5026385;28;20468;-54
2022/05/01 11:50:58;;;;;;;10.90;10.10;;;32.60;14.90;;;;;;5011114;28;20527;-55
2022/05/01 11:53:32;;;;;;;10.13;9.43;;;32.60;15.30;;;;;;5023491;28;21404;-56
2022/05/01 12:04:36;;;;;;;11.00;10.40;;;32.50;15.40;;;;;;5025726;28;21118;-55
2022/05/01 12:07:14;;;;;;;11.90;11.10;;;31.40;16.30;;;;;;5022058;28;20448;-56
2022/05/01 12:09:41;;;;;;;11.77;10.93;;;30.60;17.00;;;;;;5024287;28;20434;-52
2022/05/01 12:12:12;;;;;;;12.67;11.87;;;29.60;17.80;;;;;;5022493;28;20449;-55
2022/05/01 12:14:39;;;;;;;11.43;10.73;;;28.50;18.00;;;;;;5021775;28;20445;-54
2022/05/01 12:17:16;;;;;;;11.60;10.70;;;27.80;19.40;;;;;;5025400;28;20517;-54
2022/05/01 12:19:49;;;;;;;12.90;12.00;;;27.10;20.30;;;;;;5014385;28;20580;-55
2022/05/01 12:22:20;;;;;;;12.40;11.40;;;26.60;21.20;;;;;;5022340;28;20536;-53
2022/05/01 12:24:48;;;;;;;12.10;11.30;;;26.90;22.30;;;;;;5026309;28;20891;-54
2022/05/01 12:27:15;;;;;;;12.70;11.90;;;27.60;22.00;;;;;;5026464;28;21062;-54
2022/05/01 12:29:53;;;;;;;13.60;12.50;;;28.40;20.30;;;;;;5027963;28;20427;-55
2022/05/01 12:32:19;;;;;;;11.90;11.17;;;28.70;19.60;;;;;;5028005;28;20741;-54
2022/05/01 12:34:44;;;;;;;13.20;12.20;;;28.70;20.20;;;;;;5031255;28;20441;-54
2022/05/01 12:37:21;;;;;;;14.50;13.40;;;29.10;19.60;;;;;;5030362;28;20194;-52
2022/05/01 12:40:12;;;;;;;14.27;13.30;;;29.30;19.30;;;;;;5026848;28;20189;-53
2022/05/01 12:45:44;;;;;;;14.60;13.70;;;29.40;19.20;;;;;;5027077;28;20503;-53
2022/05/01 12:48:11;;;;;;;15.03;13.70;;;28.50;18.90;;;;;;5026208;28;20497;-51
2022/05/01 12:50:38;;;;;;;13.90;13.00;;;28.10;18.80;;;;;;5027870;28;20487;-55
2022/05/01 12:53:22;;;;;;;15.10;14.10;;;27.90;19.60;;;;;;5029959;28;20491;-52
2022/05/01 12:55:48;;;;;;;14.10;13.00;;;27.30;21.30;;;;;;5028563;28;20858;-54
2022/05/01 12:58:13;;;;;;;15.00;13.80;;;27.00;22.20;;;;;;5020552;28;20438;-53
2022/05/01 13:00:44;;;;;;;18.00;16.53;;;26.50;21.70;;;;;;5013978;28;20260;-51
2022/05/01 13:03:37;;;;;;;16.77;15.57;;;26.00;21.50;;;;;;5029423;28;20235;-54
2022/05/01 13:06:14;;;;;;;17.67;16.27;;;25.70;22.40;;;;;;5019482;28;20435;-53
2022/05/01 13:08:44;;;;;;;16.37;14.97;;;25.30;22.20;;;;;;5029453;28;20468;-53
2022/05/01 13:11:26;;;;;;;14.30;13.37;;;24.70;23.20;;;;;;5024962;28;20441;-54
2022/05/01 13:14:05;;;;;;;17.73;16.43;;;24.40;23.60;;;;;;5014049;28;20476;-53